Weather Data

Pearl Creek Farm: 8878 N Farm Road 75, Walnut Grove MO 65770

<== Previous Day (Thursday 23 Aug 2018) | Next Day (Saturday 25 Aug 2018) ==>

Summary Precipitation Data For Friday 24 August 2018

ElementValueUnits
Precipitation0.35"
NotesRain yesterday, ending by mid-afternoon.
SourcePearl Creek Farm

Summary Temperature Data For Friday 24 August 2018

ElementValueUnits
High Temperature86 oF
Low Temperature66 oF
Average Temperature76 oF
High Humidity91 %
Low Humidity61 %
Average Humidity78 %
SourceSpringfield-Branson National Airport (SGF)

Detail Temperature Data For Friday 24 August 2018

Date / TimeTemp (F)RH (%)Dew Pt (F)Report Date / TimeSource
2018-08-24 13:52:00 84 65 71.0 2019-02-02 11:24:24.260017 Springfield-Branson National Airport (SGF)
2018-08-24 17:52:00 83 70 72.0 2019-02-02 11:24:24.260017 Springfield-Branson National Airport (SGF)
2018-08-24 00:52:00 67 87 63.0 2019-02-02 11:24:24.260017 Springfield-Branson National Airport (SGF)
2018-08-24 01:52:00 67 87 63.0 2019-02-02 11:24:24.260017 Springfield-Branson National Airport (SGF)
2018-08-24 02:52:00 67 87 63.0 2019-02-02 11:24:24.260017 Springfield-Branson National Airport (SGF)
2018-08-24 03:52:00 67 87 63.0 2019-02-02 11:24:24.260017 Springfield-Branson National Airport (SGF)
2018-08-24 04:52:00 66 90 63.0 2019-02-02 11:24:24.260017 Springfield-Branson National Airport (SGF)
2018-08-24 05:52:00 66 90 63.0 2019-02-02 11:24:24.260017 Springfield-Branson National Airport (SGF)
2018-08-24 06:52:00 67 91 64.0 2019-02-02 11:24:24.260017 Springfield-Branson National Airport (SGF)
2018-08-24 07:52:00 69 87 65.0 2019-02-02 11:24:24.260017 Springfield-Branson National Airport (SGF)
2018-08-24 08:52:00 72 82 66.0 2019-02-02 11:24:24.260017 Springfield-Branson National Airport (SGF)
2018-08-24 09:52:00 79 74 70.0 2019-02-02 11:24:24.260017 Springfield-Branson National Airport (SGF)
2018-08-24 10:52:00 83 65 70.0 2019-02-02 11:24:24.260017 Springfield-Branson National Airport (SGF)
2018-08-24 11:52:00 86 61 71.0 2019-02-02 11:24:24.260017 Springfield-Branson National Airport (SGF)
2018-08-24 12:52:00 85 61 70.0 2019-02-02 11:24:24.260017 Springfield-Branson National Airport (SGF)
2018-08-24 14:52:00 83 70 72.0 2019-02-02 11:24:24.260017 Springfield-Branson National Airport (SGF)
2018-08-24 15:52:00 84 70 73.0 2019-02-02 11:24:24.260017 Springfield-Branson National Airport (SGF)
2018-08-24 16:52:00 84 67 72.0 2019-02-02 11:24:24.260017 Springfield-Branson National Airport (SGF)
2018-08-24 18:52:00 81 74 72.0 2019-02-02 11:24:24.260017 Springfield-Branson National Airport (SGF)
2018-08-24 19:52:00 81 77 73.0 2019-02-02 11:24:24.260017 Springfield-Branson National Airport (SGF)
2018-08-24 20:52:00 79 82 73.0 2019-02-02 11:24:24.260017 Springfield-Branson National Airport (SGF)
2018-08-24 21:52:00 78 82 72.0 2019-02-02 11:24:24.260017 Springfield-Branson National Airport (SGF)
2018-08-24 22:52:00 78 82 72.0 2019-02-02 11:24:24.260017 Springfield-Branson National Airport (SGF)
2018-08-24 23:52:00 76 88 72.0 2019-02-02 11:24:24.260017 Springfield-Branson National Airport (SGF)

A total of 24 rows are displayed.